aviador You're here:

SGES Decoded Metar

GUARANY in PARAGUAY
Report Time2017-10-22 17:00:00
UTC Time2017-10-22 17:26:35
Flight Rules mvfr MVFR
Wind230° at 10 kt
W.Decomp.*RWY 23: 9.7 kt HW 2.6 kt RCW
W.Rank230° ranks 24
Current wind is above 230° avg. (8.2)
Visibility9999 m
Phenomena:N/A
Clouds:Broken 010 Hf
Overcast 070 Hf
Expected CloudBase > 2,000 ft AGL from Temp-Dew spread
Ceiling1,000 ft
Temp21°C (ISA +12)
Dew Point16°C (73% RH)
AAT19.4°C
QNH1019 hPa
Density Alt4,177 ft
Elevation2,785 ft
Report Wrong Elevation
Raw Report
SGES 221700Z 23010KT 9999 BKN010 OVC070 21/16 Q1019=

Extra information for SGES:More info

Metar Taf Metar & Taf Last 4 Metars F.Rules Stats Wind Profile Meteogram Temp Stats Airport Information Weather charts Add Link Nearby VenuesMetar ALERT Operation Metar Decoded Social comments